^^
Station Historical Data
Daily Summary for May 15, 2017 Units:  English    Metric   Both
« Previous Day
Next Day »
Daily Weekly Monthly Yearly Custom
  High: Low: Average:
Temperature: 70.8 °F 48.6 °F 59.8 °F
Dew Point: 46.3 °F 39.3 °F 42.9 °F
Humidity: 76 % 38 % 55 %
Wind Speed: 18.4 mph 0.0 mph 5.8 mph
Wind Gust: 29.9 mph - -
Wind:- - WNW
Pressure: 29.99 in 29.74 in -
Precipitation: 0.00 in    
Historical Graphs
 
 
Tabular Data for May 15, 2017
Time Temperature Dew Point Pressure Wind Wind Speed Wind Gust Humidity Rainfall Rate (Hourly) solar Conditions
00:03 53.7 °F 39.7 °F 29.74 in West 8.6 mph 19.6 mph 59 % 0.00 in 0.0 W/m2 CLR
00:08 53.7 °F 39.7 °F 29.74 in NW 4.1 mph 19.6 mph 59 % 0.00 in 0.0 W/m2 CLR
00:13 53.5 °F 39.5 °F 29.74 in West 4.3 mph 19.6 mph 59 % 0.00 in 0.0 W/m2 CLR
00:18 53.4 °F 39.4 °F 29.74 in WNW 10.8 mph 15.0 mph 59 % 0.00 in 0.0 W/m2 CLR
00:23 53.5 °F 39.5 °F 29.74 in NW 7.2 mph 19.6 mph 59 % 0.00 in 0.0 W/m2 CLR
00:28 53.4 °F 39.4 °F 29.74 in West 5.6 mph 19.6 mph 59 % 0.00 in 0.0 W/m2 CLR
00:33 53.3 °F 39.3 °F 29.74 in NW 4.0 mph 13.8 mph 59 % 0.00 in 0.0 W/m2 CLR
00:38 53.1 °F 39.6 °F 29.74 in WNW 0.2 mph 11.5 mph 60 % 0.00 in 0.0 W/m2 CLR
00:43 53.0 °F 39.5 °F 29.74 in NW 11.9 mph 13.8 mph 60 % 0.00 in 0.0 W/m2 CLR
00:48 53.1 °F 39.6 °F 29.75 in WNW 10.0 mph 18.4 mph 60 % 0.00 in 0.0 W/m2 CLR
00:53 53.1 °F 39.6 °F 29.75 in NW 4.3 mph 18.4 mph 60 % 0.00 in 0.0 W/m2 CLR
00:59 53.0 °F 39.5 °F 29.75 in West 4.2 mph 12.7 mph 60 % 0.00 in 0.0 W/m2 CLR
01:04 53.0 °F 39.9 °F 29.75 in WNW 5.4 mph 17.3 mph 61 % 0.00 in 0.0 W/m2 BKN
01:09 52.9 °F 39.8 °F 29.75 in NW 0.2 mph 17.3 mph 61 % 0.00 in 0.0 W/m2 BKN
01:14 52.8 °F 40.1 °F 29.75 in WNW 5.7 mph 16.1 mph 62 % 0.00 in 0.0 W/m2 BKN
01:19 52.8 °F 40.1 °F 29.75 in West 5.1 mph 16.1 mph 62 % 0.00 in 0.0 W/m2 BKN
01:24 52.7 °F 40.0 °F 29.75 in NNW 2.7 mph 16.1 mph 62 % 0.00 in 0.0 W/m2 BKN
01:29 52.6 °F 39.9 °F 29.75 in WNW 2.8 mph 11.5 mph 62 % 0.00 in 0.0 W/m2 BKN
01:35 52.5 °F 40.3 °F 29.75 in West 5.1 mph 13.8 mph 63 % 0.00 in 0.0 W/m2 BKN
01:40 52.6 °F 40.4 °F 29.75 in WNW 6.9 mph 18.4 mph 63 % 0.00 in 0.0 W/m2 BKN
01:45 52.7 °F 40.5 °F 29.75 in Calm   18.4 mph 63 % 0.00 in 0.0 W/m2 BKN
01:50 52.4 °F 40.2 °F 29.75 in WNW 1.0 mph 8.0 mph 63 % 0.00 in 0.0 W/m2 BKN
01:55 52.3 °F 40.5 °F 29.74 in Calm   9.0 mph 64 % 0.00 in 0.0 W/m2 BKN
02:00 52.4 °F 40.6 °F 29.74 in SW 0.1 mph 11.5 mph 64 % 0.00 in 0.0 W/m2 BKN
02:05 52.3 °F 40.9 °F 29.74 in West 2.0 mph 8.0 mph 65 % 0.00 in 0.0 W/m2 SCT
02:10 52.2 °F 40.8 °F 29.74 in West 2.0 mph 10.0 mph 65 % 0.00 in 0.0 W/m2 SCT
02:15 52.2 °F 40.8 °F 29.74 in NW 0.1 mph 10.4 mph 65 % 0.00 in 0.0 W/m2 SCT
02:20 52.1 °F 40.7 °F 29.74 in West 2.0 mph 9.0 mph 65 % 0.00 in 0.0 W/m2 SCT
02:25 52.1 °F 40.7 °F 29.74 in West 1.0 mph 8.0 mph 65 % 0.00 in 0.0 W/m2 SCT
02:30 52.1 °F 40.7 °F 29.74 in West 4.4 mph 11.5 mph 65 % 0.00 in 0.0 W/m2 SCT
02:35 52.1 °F 40.7 °F 29.74 in WNW 2.0 mph 7.0 mph 65 % 0.00 in 0.0 W/m2 SCT
02:40 52.2 °F 40.8 °F 29.74 in West 1.0 mph 9.0 mph 65 % 0.00 in 0.0 W/m2 SCT
02:45 52.1 °F 40.7 °F 29.74 in Calm   9.2 mph 65 % 0.00 in 0.0 W/m2 SCT
02:50 52.0 °F 41.0 °F 29.74 in Calm     66 % 0.00 in 0.0 W/m2 SCT
02:55 51.8 °F 40.8 °F 29.74 in Calm   2.0 mph 66 % 0.00 in 0.0 W/m2 SCT
03:00 51.7 °F 40.7 °F 29.74 in Calm   3.5 mph 66 % 0.00 in 0.0 W/m2 SCT
03:05 51.5 °F 40.5 °F 29.75 in Calm     66 % 0.00 in 0.0 W/m2 BKN
03:10 51.5 °F 40.9 °F 29.75 in Calm   8.0 mph 67 % 0.00 in 0.0 W/m2 BKN
03:15 51.5 °F 40.5 °F 29.75 in WNW 2.7 mph 8.1 mph 66 % 0.00 in 0.0 W/m2 BKN
03:20 51.2 °F 40.6 °F 29.75 in Calm   6.9 mph 67 % 0.00 in 0.0 W/m2 BKN
03:25 51.2 °F 40.6 °F 29.75 in Calm   2.0 mph 67 % 0.00 in 0.0 W/m2 BKN
03:30 51.3 °F 40.7 °F 29.75 in Calm   2.3 mph 67 % 0.00 in 0.0 W/m2 BKN
03:35 51.1 °F 40.9 °F 29.75 in Calm     68 % 0.00 in 0.0 W/m2 BKN
03:38 51.1 °F 40.9 °F 29.75 in Calm     68 % 0.00 in 0.0 W/m2 BKN
03:43 51.1 °F 40.9 °F 29.75 in Calm     68 % 0.00 in 0.0 W/m2 BKN
03:48 50.9 °F 41.1 °F 29.75 in Calm     69 % 0.00 in 0.0 W/m2 BKN
03:53 51.0 °F 41.2 °F 29.75 in Calm     69 % 0.00 in 0.0 W/m2 BKN
03:58 51.2 °F 41.4 °F 29.76 in Calm   3.5 mph 69 % 0.00 in 0.0 W/m2 BKN
04:03 51.3 °F 41.1 °F 29.76 in Calm   3.5 mph 68 % 0.00 in 0.0 W/m2 BKN
04:08 51.2 °F 41.0 °F 29.76 in Calm   2.3 mph 68 % 0.00 in 0.0 W/m2 BKN
04:13 51.0 °F 41.2 °F 29.76 in West 0.7 mph 2.3 mph 69 % 0.00 in 0.0 W/m2 BKN
04:18 50.8 °F 41.0 °F 29.76 in Calm   5.8 mph 69 % 0.00 in 0.0 W/m2 BKN
04:23 50.6 °F 40.8 °F 29.76 in Calm   5.8 mph 69 % 0.00 in 0.0 W/m2 BKN
04:28 50.3 °F 40.9 °F 29.76 in Calm   3.5 mph 70 % 0.00 in 0.0 W/m2 BKN
04:33 50.1 °F 41.1 °F 29.76 in Calm   6.9 mph 71 % 0.00 in 0.0 W/m2 BKN
04:38 49.8 °F 40.8 °F 29.76 in SW 0.1 mph 6.9 mph 71 % 0.00 in 0.0 W/m2 BKN
04:43 49.5 °F 40.8 °F 29.76 in Calm   2.3 mph 72 % 0.00 in 0.0 W/m2 BKN
04:48 49.5 °F 40.8 °F 29.76 in Calm   3.5 mph 72 % 0.00 in 0.0 W/m2 BKN
04:53 49.6 °F 40.9 °F 29.75 in WSW 0.1 mph 3.5 mph 72 % 0.00 in 0.0 W/m2 BKN
04:58 49.5 °F 41.2 °F 29.75 in SW 0.2 mph 3.5 mph 73 % 0.00 in 0.0 W/m2 BKN
05:03 49.4 °F 40.7 °F 29.75 in Calm   3.5 mph 72 % 0.00 in 0.0 W/m2 BKN
05:09 49.2 °F 40.9 °F 29.76 in SW 0.4 mph 4.6 mph 73 % 0.00 in 0.0 W/m2 BKN
05:14 49.1 °F 40.8 °F 29.76 in Calm   4.6 mph 73 % 0.00 in 0.0 W/m2 BKN
05:19 49.1 °F 40.8 °F 29.76 in SW 0.3 mph 4.6 mph 73 % 0.00 in 0.0 W/m2 BKN
05:24 49.1 °F 41.2 °F 29.77 in Calm   2.3 mph 74 % 0.00 in 0.0 W/m2 BKN
05:29 48.9 °F 41.0 °F 29.77 in Calm   2.3 mph 74 % 0.00 in 0.0 W/m2 BKN
05:34 48.8 °F 40.9 °F 29.77 in Calm     74 % 0.00 in 0.0 W/m2 BKN
05:39 48.7 °F 40.8 °F 29.77 in SSW 0.4 mph 2.3 mph 74 % 0.00 in 0.0 W/m2 BKN
05:44 48.6 °F 41.0 °F 29.77 in SW 1.2 mph 3.5 mph 75 % 0.00 in 0.0 W/m2 BKN
05:49 48.7 °F 41.1 °F 29.77 in WSW 0.2 mph 3.5 mph 75 % 0.00 in 0.0 W/m2 BKN
05:54 48.8 °F 41.2 °F 29.77 in SW 0.2 mph 3.5 mph 75 % 0.00 in 5.0 W/m2 BKN
05:59 49.0 °F 41.8 °F 29.77 in WSW 0.5 mph 6.9 mph 76 % 0.00 in 5.0 W/m2 BKN
06:04 49.1 °F 41.5 °F 29.78 in Calm   6.9 mph 75 % 0.00 in 9.0 W/m2 OVC
06:09 49.3 °F 41.7 °F 29.78 in Calm   3.5 mph 75 % 0.00 in 18.0 W/m2 OVC
06:14 49.5 °F 41.9 °F 29.78 in Calm   2.3 mph 75 % 0.00 in 23.0 W/m2 OVC
06:19 49.7 °F 42.1 °F 29.78 in WSW 1.4 mph 5.8 mph 75 % 0.00 in 23.0 W/m2 OVC
06:24 49.9 °F 42.3 °F 29.79 in Calm   5.8 mph 75 % 0.00 in 28.0 W/m2 OVC
06:29 50.3 °F 42.7 °F 29.79 in West 1.4 mph 3.5 mph 75 % 0.00 in 44.0 W/m2 OVC
06:34 50.7 °F 42.7 °F 29.79 in West 1.2 mph 4.6 mph 74 % 0.00 in 47.0 W/m2 OVC
06:39 51.3 °F 42.9 °F 29.79 in WNW 0.5 mph 4.6 mph 73 % 0.00 in 63.0 W/m2 OVC
06:44 51.7 °F 43.0 °F 29.79 in NW 0.1 mph 4.6 mph 72 % 0.00 in 58.0 W/m2 OVC
06:49 52.0 °F 42.9 °F 29.79 in WNW 1.6 mph 9.2 mph 71 % 0.00 in 74.0 W/m2 OVC
06:54 52.3 °F 43.2 °F 29.79 in NW 1.3 mph 11.5 mph 71 % 0.00 in 63.0 W/m2 OVC
06:59 52.5 °F 43.0 °F 29.79 in NW 6.0 mph 12.7 mph 70 % 0.00 in 81.0 W/m2 OVC
07:04 52.9 °F 43.0 °F 29.80 in NW 5.1 mph 15.0 mph 69 % 0.00 in 83.0 W/m2 BKN
07:09 53.1 °F 43.2 °F 29.80 in WNW 3.3 mph 15.0 mph 69 % 0.00 in 90.0 W/m2 BKN
07:14 53.2 °F 42.9 °F 29.80 in WNW 8.5 mph 12.7 mph 68 % 0.00 in 84.0 W/m2 BKN
07:19 53.3 °F 43.0 °F 29.80 in West 6.2 mph 12.7 mph 68 % 0.00 in 90.0 W/m2 BKN
07:24 53.4 °F 43.1 °F 29.80 in West 2.0 mph 12.7 mph 68 % 0.00 in 109.0 W/m2 BKN
07:29 53.5 °F 42.8 °F 29.81 in NW 6.2 mph 11.5 mph 67 % 0.00 in 98.0 W/m2 BKN
07:34 53.7 °F 43.0 °F 29.81 in NW 5.9 mph 11.5 mph 67 % 0.00 in 102.0 W/m2 BKN
07:39 53.9 °F 43.2 °F 29.81 in WNW 7.6 mph 13.8 mph 67 % 0.00 in 100.0 W/m2 BKN
07:44 54.1 °F 42.6 °F 29.81 in WNW 8.0 mph 15.0 mph 65 % 0.00 in 91.0 W/m2 BKN
07:49 54.4 °F 42.9 °F 29.82 in NW 7.9 mph 16.1 mph 65 % 0.00 in 116.0 W/m2 BKN
07:54 54.7 °F 42.8 °F 29.82 in NW 7.7 mph 16.1 mph 64 % 0.00 in 132.0 W/m2 BKN
07:59 54.8 °F 42.4 °F 29.82 in NW 9.5 mph 16.1 mph 63 % 0.00 in 113.0 W/m2 BKN
08:04 54.9 °F 42.9 °F 29.82 in NNW 6.3 mph 15.0 mph 64 % 0.00 in 116.0 W/m2 SCT
08:09 55.2 °F 42.8 °F 29.82 in WNW 7.9 mph 15.0 mph 63 % 0.00 in 69.0 W/m2 SCT
08:14 55.8 °F 43.0 °F 29.82 in NW 11.4 mph 16.1 mph 62 % 0.00 in 62.0 W/m2 SCT
08:19 55.7 °F 42.9 °F 29.82 in NNW 9.8 mph 16.1 mph 62 % 0.00 in 69.0 W/m2 SCT
08:24 56.2 °F 43.3 °F 29.82 in NW 7.3 mph 16.1 mph 62 % 0.00 in 76.0 W/m2 SCT
08:29 56.5 °F 42.8 °F 29.82 in NW 12.1 mph 18.4 mph 60 % 0.00 in 60.0 W/m2 SCT
08:34 56.4 °F 42.7 °F 29.82 in NNW 9.9 mph 21.9 mph 60 % 0.00 in 83.0 W/m2 SCT
08:39 56.2 °F 42.9 °F 29.83 in NW 14.2 mph 21.9 mph 61 % 0.00 in 139.0 W/m2 SCT
08:44 56.0 °F 41.9 °F 29.83 in NW 8.9 mph 27.6 mph 59 % 0.00 in 148.0 W/m2 SCT
08:49 55.8 °F 41.7 °F 29.83 in NNW 11.4 mph 27.6 mph 59 % 0.00 in 74.0 W/m2 SCT
08:54 55.5 °F 41.4 °F 29.83 in NW 7.6 mph 25.3 mph 59 % 0.00 in 100.0 W/m2 SCT
08:59 55.5 °F 41.8 °F 29.83 in WNW 10.3 mph 20.7 mph 60 % 0.00 in 260.0 W/m2 SCT
09:05 56.2 °F 42.5 °F 29.84 in NNW 12.7 mph 20.7 mph 60 % 0.00 in 183.0 W/m2 BKN
09:10 56.4 °F 41.8 °F 29.83 in NNW 14.7 mph 26.5 mph 58 % 0.00 in 652.0 W/m2 BKN
09:15 56.3 °F 41.7 °F 29.83 in NNW 14.0 mph 26.5 mph 58 % 0.00 in 670.0 W/m2 BKN
09:20 57.0 °F 42.4 °F 29.83 in NW 14.0 mph 20.0 mph 58 % 0.00 in 666.0 W/m2 BKN
09:25 57.5 °F 41.9 °F 29.83 in NW 15.4 mph 23.0 mph 56 % 0.00 in 684.0 W/m2 BKN
09:30 57.6 °F 42.0 °F 29.83 in North 8.2 mph 23.0 mph 56 % 0.00 in 708.0 W/m2 BKN
09:35 57.6 °F 42.0 °F 29.83 in NNW 9.0 mph 22.0 mph 56 % 0.00 in 728.0 W/m2 BKN
09:40 58.0 °F 42.4 °F 29.83 in NNW 10.0 mph 22.0 mph 56 % 0.00 in 747.0 W/m2 BKN
09:45 58.1 °F 42.0 °F 29.84 in NW 14.8 mph 25.3 mph 55 % 0.00 in 788.0 W/m2 BKN
09:50 58.2 °F 42.6 °F 29.84 in North 10.8 mph 25.3 mph 56 % 0.00 in 823.0 W/m2 BKN
09:55 58.8 °F 42.6 °F 29.84 in NNW 13.0 mph 20.0 mph 55 % 0.00 in 833.0 W/m2 BKN
10:00 58.9 °F 42.8 °F 29.84 in WNW 13.9 mph 20.7 mph 55 % 0.00 in 1016.0 W/m2 BKN
10:05 59.4 °F 43.2 °F 29.85 in West 7.7 mph 20.7 mph 55 % 0.00 in 974.0 W/m2 CLR
10:10 59.2 °F 42.6 °F 29.85 in NW 9.9 mph 20.7 mph 54 % 0.00 in 329.0 W/m2 CLR
10:15 58.7 °F 42.6 °F 29.85 in NW 5.6 mph 20.7 mph 55 % 0.00 in 244.0 W/m2 CLR
10:20 58.6 °F 42.9 °F 29.85 in NW 7.4 mph 20.7 mph 56 % 0.00 in 285.0 W/m2 CLR
10:25 59.4 °F 42.8 °F 29.85 in NW 13.0 mph 17.0 mph 54 % 0.00 in 253.0 W/m2 CLR
10:30 59.9 °F 42.7 °F 29.85 in NW 11.9 mph 17.3 mph 53 % 0.00 in 315.0 W/m2 CLR
10:35 60.0 °F 43.8 °F 29.85 in West 6.2 mph 19.6 mph 55 % 0.00 in 1071.0 W/m2 CLR
10:40 60.8 °F 43.1 °F 29.86 in WNW 12.0 mph 19.6 mph 52 % 0.00 in 990.0 W/m2 CLR
10:45 60.2 °F 42.5 °F 29.85 in WNW 10.6 mph 18.4 mph 52 % 0.00 in 264.0 W/m2 CLR
10:50 60.5 °F 43.3 °F 29.85 in NW 9.5 mph 19.6 mph 53 % 0.00 in 1111.0 W/m2 CLR
10:55 60.6 °F 43.4 °F 29.85 in WNW 10.1 mph 19.6 mph 53 % 0.00 in 1044.0 W/m2 CLR
11:00 59.9 °F 42.2 °F 29.85 in NW 9.3 mph 19.6 mph 52 % 0.00 in 320.0 W/m2 CLR
11:05 60.5 °F 43.3 °F 29.86 in NNW 9.9 mph 19.6 mph 53 % 0.00 in 1104.0 W/m2 OVC
11:10 59.9 °F 42.2 °F 29.86 in NW 10.8 mph 19.6 mph 52 % 0.00 in 251.0 W/m2 OVC
11:15 60.7 °F 43.5 °F 29.85 in WNW 11.5 mph 19.6 mph 53 % 0.00 in 1174.0 W/m2 OVC
11:20 60.6 °F 42.9 °F 29.85 in NNW 11.5 mph 19.6 mph 52 % 0.00 in 1072.0 W/m2 OVC
11:25 61.1 °F 43.3 °F 29.85 in NW 11.1 mph 21.9 mph 52 % 0.00 in 1125.0 W/m2 OVC
11:30 61.3 °F 43.5 °F 29.85 in West 4.8 mph 21.9 mph 52 % 0.00 in 1125.0 W/m2 OVC
11:35 62.4 °F 43.5 °F 29.85 in WNW 9.2 mph 18.4 mph 50 % 0.00 in 1086.0 W/m2 OVC
11:40 61.9 °F 43.0 °F 29.86 in West 10.1 mph 19.6 mph 50 % 0.00 in 1049.0 W/m2 OVC
11:45 62.1 °F 43.2 °F 29.86 in NW 6.3 mph 19.6 mph 50 % 0.00 in 1162.0 W/m2 OVC
11:51 62.8 °F 43.9 °F 29.85 in NW 10.8 mph 18.4 mph 50 % 0.00 in 977.0 W/m2 OVC
11:56 63.4 °F 44.4 °F 29.85 in NW 8.9 mph 18.4 mph 50 % 0.00 in 1063.0 W/m2 OVC
12:01 63.4 °F 44.4 °F 29.85 in NW 12.6 mph 19.6 mph 50 % 0.00 in 1095.0 W/m2 OVC
12:02 63.6 °F 44.6 °F 29.85 in NW 11.6 mph 19.6 mph 50 % 0.00 in 1042.0 W/m2 OVC
12:07 63.5 °F 44.5 °F 29.85 in WNW 2.2 mph 19.6 mph 50 % 0.00 in 1086.0 W/m2 OVC
12:12 63.9 °F 43.8 °F 29.85 in NNW 11.3 mph 18.4 mph 48 % 0.00 in 1118.0 W/m2 OVC
12:17 63.5 °F 44.0 °F 29.85 in WNW 13.7 mph 25.3 mph 49 % 0.00 in 1013.0 W/m2 OVC
12:22 63.4 °F 44.4 °F 29.85 in NNE 12.0 mph 25.3 mph 50 % 0.00 in 1111.0 W/m2 OVC
12:27 63.6 °F 44.6 °F 29.84 in WNW 6.8 mph 20.7 mph 50 % 0.00 in 1220.0 W/m2 OVC
12:32 63.5 °F 43.4 °F 29.84 in West 7.1 mph 19.6 mph 48 % 0.00 in 1158.0 W/m2 OVC
12:37 64.1 °F 44.5 °F 29.84 in NNW 6.6 mph 19.6 mph 49 % 0.00 in 1181.0 W/m2 OVC
12:42 64.6 °F 45.0 °F 29.84 in WNW 2.5 mph 16.1 mph 49 % 0.00 in 1172.0 W/m2 OVC
12:47 65.3 °F 45.1 °F 29.84 in NNW 9.1 mph 15.0 mph 48 % 0.00 in 1172.0 W/m2 OVC
12:52 65.7 °F 44.9 °F 29.84 in NNW 3.3 mph 20.7 mph 47 % 0.00 in 1074.0 W/m2 OVC
12:57 65.5 °F 44.2 °F 29.84 in NW 9.4 mph 20.7 mph 46 % 0.00 in 1078.0 W/m2 OVC
12:59 65.5 °F 44.2 °F 29.84 in North 8.4 mph 20.7 mph 46 % 0.00 in 1069.0 W/m2 OVC
13:04 65.5 °F 44.7 °F 29.84 in NW 9.3 mph 16.1 mph 47 % 0.00 in 1076.0 W/m2 CLR
13:09 66.2 °F 44.8 °F 29.84 in NW 10.7 mph 17.3 mph 46 % 0.00 in 1060.0 W/m2 CLR
13:14 66.0 °F 44.6 °F 29.84 in NNW 12.1 mph 24.2 mph 46 % 0.00 in 1046.0 W/m2 CLR
13:19 66.6 °F 46.3 °F 29.84 in WNW 9.5 mph 24.2 mph 48 % 0.00 in 1065.0 W/m2 CLR
13:24 66.3 °F 44.3 °F 29.84 in WNW 13.0 mph 20.7 mph 45 % 0.00 in 355.0 W/m2 CLR
13:29 65.9 °F 43.9 °F 29.83 in WNW 14.3 mph 20.7 mph 45 % 0.00 in 360.0 W/m2 CLR
13:35 66.5 °F 45.6 °F 29.83 in NW 9.9 mph 20.7 mph 47 % 0.00 in 1121.0 W/m2 CLR
13:40 67.0 °F 44.9 °F 29.84 in North 12.0 mph 20.7 mph 45 % 0.00 in 1041.0 W/m2 CLR
13:45 67.6 °F 45.5 °F 29.83 in WNW 14.5 mph 20.7 mph 45 % 0.00 in 1063.0 W/m2 CLR
13:50 67.7 °F 45.0 °F 29.83 in NW 15.0 mph 25.0 mph 44 % 0.00 in 1014.0 W/m2 CLR
13:55 67.7 °F 44.4 °F 29.83 in NW 14.0 mph 21.0 mph 43 % 0.00 in 1030.0 W/m2 CLR
14:00 67.9 °F 44.6 °F 29.83 in NNW 15.9 mph 25.3 mph 43 % 0.00 in 1013.0 W/m2 CLR
14:02 67.9 °F 45.2 °F 29.83 in WNW 14.7 mph 24.2 mph 44 % 0.00 in 993.0 W/m2 FEW
14:07 68.0 °F 44.7 °F 29.83 in NNE 13.0 mph 26.5 mph 43 % 0.00 in 986.0 W/m2 FEW
14:12 67.9 °F 44.0 °F 29.83 in NW 13.2 mph 26.5 mph 42 % 0.00 in 995.0 W/m2 FEW
14:17 68.1 °F 44.1 °F 29.83 in NW 12.9 mph 26.5 mph 42 % 0.00 in 1021.0 W/m2 FEW
14:22 68.0 °F 44.7 °F 29.83 in WNW 11.8 mph 21.9 mph 43 % 0.00 in 1013.0 W/m2 FEW
14:27 68.9 °F 45.5 °F 29.83 in NNW 5.9 mph 21.9 mph 43 % 0.00 in 1039.0 W/m2 FEW
14:32 69.2 °F 44.5 °F 29.83 in NW 8.2 mph 21.9 mph 41 % 0.00 in 983.0 W/m2 FEW
14:37 69.4 °F 44.7 °F 29.82 in NW 15.6 mph 20.7 mph 41 % 0.00 in 935.0 W/m2 FEW
14:42 69.4 °F 45.3 °F 29.83 in NW 11.2 mph 23.0 mph 42 % 0.00 in 933.0 W/m2 FEW
14:47 69.3 °F 45.2 °F 29.83 in North 10.2 mph 26.5 mph 42 % 0.00 in 919.0 W/m2 FEW
14:52 69.5 °F 44.1 °F 29.83 in NNW 16.0 mph 27.6 mph 40 % 0.00 in 904.0 W/m2 FEW
14:57 69.1 °F 43.8 °F 29.83 in NNW 11.5 mph 27.6 mph 40 % 0.00 in 889.0 W/m2 FEW
15:02 69.7 °F 43.6 °F 29.83 in WNW 13.6 mph 27.6 mph 39 % 0.00 in 882.0 W/m2 CLR
15:07 69.4 °F 44.0 °F 29.83 in North 10.7 mph 25.3 mph 40 % 0.00 in 872.0 W/m2 CLR
15:12 69.5 °F 44.1 °F 29.83 in North 8.8 mph 25.3 mph 40 % 0.00 in 860.0 W/m2 CLR
15:17 69.6 °F 44.2 °F 29.82 in North 10.7 mph 23.0 mph 40 % 0.00 in 851.0 W/m2 CLR
15:22 69.5 °F 43.4 °F 29.82 in NW 16.0 mph 24.2 mph 39 % 0.00 in 840.0 W/m2 CLR
15:27 69.2 °F 43.8 °F 29.83 in NW 15.1 mph 25.3 mph 40 % 0.00 in 835.0 W/m2 CLR
15:33 69.8 °F 43.7 °F 29.83 in NNW 12.1 mph 25.3 mph 39 % 0.00 in 816.0 W/m2 CLR
15:38 69.9 °F 43.1 °F 29.83 in NW 18.4 mph 27.6 mph 38 % 0.00 in 805.0 W/m2 CLR
15:43 69.9 °F 43.8 °F 29.83 in WNW 15.4 mph 27.6 mph 39 % 0.00 in 788.0 W/m2 CLR
15:48 70.0 °F 43.9 °F 29.82 in NNW 10.7 mph 25.3 mph 39 % 0.00 in 777.0 W/m2 CLR
15:53 70.1 °F 44.0 °F 29.82 in NW 12.5 mph 20.7 mph 39 % 0.00 in 761.0 W/m2 CLR
15:58 69.9 °F 43.8 °F 29.83 in NW 13.7 mph 24.2 mph 39 % 0.00 in 752.0 W/m2 CLR
16:03 70.2 °F 44.7 °F 29.83 in NW 9.2 mph 24.2 mph 40 % 0.00 in 763.0 W/m2 CLR
16:08 70.6 °F 43.7 °F 29.82 in NW 9.4 mph 19.6 mph 38 % 0.00 in 742.0 W/m2 CLR
16:13 70.3 °F 44.2 °F 29.83 in WNW 12.2 mph 21.9 mph 39 % 0.00 in 714.0 W/m2 CLR
16:18 70.2 °F 44.7 °F 29.83 in NW 9.8 mph 21.9 mph 40 % 0.00 in 733.0 W/m2 CLR
16:23 70.8 °F 43.9 °F 29.83 in NW 13.5 mph 29.9 mph 38 % 0.00 in 733.0 W/m2 CLR
16:28 70.5 °F 44.3 °F 29.84 in NNW 3.8 mph 29.9 mph 39 % 0.00 in 712.0 W/m2 CLR
16:33 70.3 °F 44.2 °F 29.83 in NW 7.2 mph 19.6 mph 39 % 0.00 in 689.0 W/m2 CLR
16:38 70.8 °F 43.9 °F 29.83 in NW 14.6 mph 19.6 mph 38 % 0.00 in 689.0 W/m2 CLR
16:43 70.7 °F 43.8 °F 29.84 in NW 12.7 mph 23.0 mph 38 % 0.00 in 629.0 W/m2 CLR
16:48 70.6 °F 43.7 °F 29.84 in NW 10.4 mph 23.0 mph 38 % 0.00 in 629.0 W/m2 CLR
16:49 70.6 °F 43.7 °F 29.84 in NNW 11.9 mph 23.0 mph 38 % 0.00 in 628.0 W/m2 CLR
16:54 70.3 °F 44.2 °F 29.84 in NNW 7.5 mph 19.6 mph 39 % 0.00 in 633.0 W/m2 CLR
16:59 70.0 °F 43.2 °F 29.84 in WNW 12.2 mph 26.5 mph 38 % 0.00 in 599.0 W/m2 CLR
17:04 69.2 °F 43.2 °F 29.84 in NW 9.9 mph 26.5 mph 39 % 0.00 in 69.0 W/m2 FEW
17:09 68.3 °F 42.4 °F 29.84 in WNW 10.5 mph 20.7 mph 39 % 0.00 in 148.0 W/m2 FEW
17:14 68.1 °F 42.9 °F 29.84 in NNW 10.3 mph 19.6 mph 40 % 0.00 in 83.0 W/m2 FEW
17:19 68.1 °F 43.5 °F 29.85 in NNW 5.0 mph 19.6 mph 41 % 0.00 in 79.0 W/m2 FEW
17:24 67.8 °F 43.2 °F 29.85 in NW 10.2 mph 19.6 mph 41 % 0.00 in 98.0 W/m2 FEW
17:26 67.7 °F 42.5 °F 29.85 in NW 13.5 mph 20.7 mph 40 % 0.00 in 98.0 W/m2 FEW
17:31 67.6 °F 42.4 °F 29.85 in NNW 11.9 mph 21.9 mph 40 % 0.00 in 107.0 W/m2 FEW
17:36 68.9 °F 43.6 °F 29.86 in NNW 6.7 mph 21.9 mph 40 % 0.00 in 487.0 W/m2 FEW
17:41 69.6 °F 43.5 °F 29.86 in WNW 6.0 mph 18.4 mph 39 % 0.00 in 459.0 W/m2 FEW
17:46 69.9 °F 43.1 °F 29.86 in NW 5.2 mph 18.4 mph 38 % 0.00 in 441.0 W/m2 FEW
17:51 70.1 °F 44.0 °F 29.86 in NW 7.5 mph 18.4 mph 39 % 0.00 in 420.0 W/m2 FEW
17:56 70.0 °F 43.2 °F 29.86 in NNW 14.5 mph 19.6 mph 38 % 0.00 in 401.0 W/m2 FEW
18:01 69.9 °F 43.8 °F 29.86 in WNW 8.1 mph 19.6 mph 39 % 0.00 in 376.0 W/m2 CLR
18:06 70.2 °F 44.1 °F 29.86 in NNW 7.5 mph 19.6 mph 39 % 0.00 in 346.0 W/m2 CLR
18:11 70.2 °F 43.4 °F 29.86 in NNW 9.4 mph 19.6 mph 38 % 0.00 in 323.0 W/m2 CLR
18:16 69.8 °F 43.0 °F 29.87 in NW 11.5 mph 19.6 mph 38 % 0.00 in 308.0 W/m2 CLR
18:21 69.4 °F 43.4 °F 29.87 in WNW 8.7 mph 18.4 mph 39 % 0.00 in 294.0 W/m2 CLR
18:26 69.3 °F 43.3 °F 29.87 in NNW 10.8 mph 18.4 mph 39 % 0.00 in 271.0 W/m2 CLR
18:31 69.1 °F 43.1 °F 29.87 in NW 6.9 mph 20.7 mph 39 % 0.00 in 251.0 W/m2 CLR
18:36 69.1 °F 43.1 °F 29.87 in NW 9.5 mph 20.7 mph 39 % 0.00 in 229.0 W/m2 CLR
18:41 69.0 °F 43.0 °F 29.87 in North 8.7 mph 18.4 mph 39 % 0.00 in 211.0 W/m2 CLR
18:46 68.9 °F 43.6 °F 29.87 in NW 1.8 mph 18.4 mph 40 % 0.00 in 190.0 W/m2 CLR
18:51 68.9 °F 43.6 °F 29.87 in NNW 2.3 mph 13.8 mph 40 % 0.00 in 167.0 W/m2 CLR
18:56 68.8 °F 43.5 °F 29.88 in NNW 6.3 mph 11.5 mph 40 % 0.00 in 146.0 W/m2 CLR
19:01 68.4 °F 42.5 °F 29.88 in West 6.1 mph 17.3 mph 39 % 0.00 in 130.0 W/m2 CLR
19:06 68.2 °F 43.6 °F 29.88 in NNW 6.2 mph 17.3 mph 41 % 0.00 in 111.0 W/m2 CLR
19:11 68.0 °F 43.4 °F 29.88 in NNW 5.4 mph 17.3 mph 41 % 0.00 in 93.0 W/m2 CLR
19:16 67.7 °F 43.8 °F 29.88 in North 4.8 mph 13.8 mph 42 % 0.00 in 76.0 W/m2 CLR
19:21 67.4 °F 42.9 °F 29.89 in NNW 10.1 mph 13.8 mph 41 % 0.00 in 40.0 W/m2 CLR
19:26 67.2 °F 43.3 °F 29.89 in NNW 2.7 mph 17.3 mph 42 % 0.00 in 32.0 W/m2 CLR
19:31 66.9 °F 43.0 °F 29.89 in NNW 1.1 mph 17.3 mph 42 % 0.00 in 28.0 W/m2 CLR
19:36 66.6 °F 44.0 °F 29.90 in NNW 0.4 mph 13.8 mph 44 % 0.00 in 26.0 W/m2 CLR
19:41 66.4 °F 43.2 °F 29.90 in North 2.3 mph 9.2 mph 43 % 0.00 in 23.0 W/m2 CLR
19:46 66.2 °F 43.0 °F 29.90 in NNW 3.5 mph 10.4 mph 43 % 0.00 in 21.0 W/m2 CLR
19:51 66.0 °F 43.5 °F 29.91 in North 0.8 mph 11.5 mph 44 % 0.00 in 18.0 W/m2 CLR
19:56 65.7 °F 43.8 °F 29.91 in Calm   11.5 mph 45 % 0.00 in 14.0 W/m2 CLR
20:01 65.4 °F 43.5 °F 29.91 in NNE 5.1 mph 9.2 mph 45 % 0.00 in 11.0 W/m2 CLR
20:07 65.2 °F 43.9 °F 29.92 in NW 0.1 mph 11.5 mph 46 % 0.00 in 5.0 W/m2 CLR
20:12 64.8 °F 43.5 °F 29.92 in NNW 2.3 mph 11.5 mph 46 % 0.00 in 0.0 W/m2 CLR
20:17 64.7 °F 43.4 °F 29.92 in North 2.4 mph 9.2 mph 46 % 0.00 in 0.0 W/m2 CLR
20:22 64.6 °F 43.9 °F 29.92 in NNW 0.4 mph 9.2 mph 47 % 0.00 in 0.0 W/m2 CLR
20:27 64.2 °F 44.1 °F 29.93 in North 2.2 mph 8.1 mph 48 % 0.00 in 0.0 W/m2 CLR
20:32 63.9 °F 43.8 °F 29.93 in NNW 0.1 mph 9.2 mph 48 % 0.00 in 0.0 W/m2 CLR
20:34 63.8 °F 43.7 °F 29.93 in Calm   9.2 mph 48 % 0.00 in 0.0 W/m2 CLR
20:39 63.6 °F 43.5 °F 29.93 in NNW 2.2 mph 8.1 mph 48 % 0.00 in 0.0 W/m2 CLR
20:44 63.5 °F 44.0 °F 29.93 in North 0.4 mph 5.8 mph 49 % 0.00 in 0.0 W/m2 CLR
20:49 63.4 °F 43.9 °F 29.93 in Calm   5.8 mph 49 % 0.00 in 0.0 W/m2 CLR
20:54 63.2 °F 44.2 °F 29.93 in Calm   5.8 mph 50 % 0.00 in 0.0 W/m2 CLR
20:59 62.9 °F 44.0 °F 29.94 in Calm   2.3 mph 50 % 0.00 in 0.0 W/m2 CLR
21:04 62.6 °F 44.2 °F 29.94 in Calm     51 % 0.00 in 0.0 W/m2 CLR
21:09 62.3 °F 43.9 °F 29.94 in Calm   1.2 mph 51 % 0.00 in 0.0 W/m2 CLR
21:14 62.0 °F 44.2 °F 29.94 in Calm   1.2 mph 52 % 0.00 in 0.0 W/m2 CLR
21:19 61.8 °F 44.5 °F 29.94 in Calm     53 % 0.00 in 0.0 W/m2 CLR
21:24 61.6 °F 44.3 °F 29.95 in Calm     53 % 0.00 in 0.0 W/m2 CLR
21:29 61.3 °F 44.5 °F 29.95 in Calm     54 % 0.00 in 0.0 W/m2 CLR
21:34 60.8 °F 44.5 °F 29.95 in Calm     55 % 0.00 in 0.0 W/m2 CLR
21:39 60.2 °F 44.4 °F 29.95 in Calm     56 % 0.00 in 0.0 W/m2 CLR
21:45 60.1 °F 44.3 °F 29.95 in Calm     56 % 0.00 in 0.0 W/m2 CLR
21:50 59.7 °F 44.4 °F 29.96 in Calm     57 % 0.00 in 0.0 W/m2 CLR
21:55 59.1 °F 44.3 °F 29.95 in Calm     58 % 0.00 in 0.0 W/m2 CLR
22:00 58.7 °F 44.4 °F 29.95 in Calm     59 % 0.00 in 0.0 W/m2 CLR
22:05 58.6 °F 44.8 °F 29.96 in Calm     60 % 0.00 in 0.0 W/m2 CLR
22:10 58.5 °F 44.6 °F 29.96 in Calm     60 % 0.00 in 0.0 W/m2 CLR
22:15 57.6 °F 45.1 °F 29.96 in Calm     63 % 0.00 in 0.0 W/m2 CLR
22:20 57.3 °F 44.8 °F 29.96 in Calm     63 % 0.00 in 0.0 W/m2 CLR
22:25 56.9 °F 44.8 °F 29.96 in Calm     64 % 0.00 in 0.0 W/m2 CLR
22:30 56.6 °F 44.6 °F 29.97 in Calm     64 % 0.00 in 0.0 W/m2 CLR
22:35 57.1 °F 44.6 °F 29.97 in Calm     63 % 0.00 in 0.0 W/m2 CLR
22:40 57.3 °F 44.4 °F 29.97 in Calm     62 % 0.00 in 0.0 W/m2 CLR
22:45 57.5 °F 44.6 °F 29.97 in Calm     62 % 0.00 in 0.0 W/m2 CLR
22:50 57.6 °F 44.7 °F 29.98 in Calm     62 % 0.00 in 0.0 W/m2 CLR
22:55 57.5 °F 44.6 °F 29.98 in Calm     62 % 0.00 in 0.0 W/m2 CLR
23:00 57.5 °F 44.6 °F 29.98 in Calm     62 % 0.00 in 0.0 W/m2 CLR
23:05 57.4 °F 44.5 °F 29.98 in Calm     62 % 0.00 in 0.0 W/m2 CLR
23:10 57.2 °F 44.3 °F 29.98 in Calm     62 % 0.00 in 0.0 W/m2 CLR
23:15 57.1 °F 44.2 °F 29.98 in Calm     62 % 0.00 in 0.0 W/m2 CLR
23:20 57.2 °F 44.3 °F 29.98 in NW 0.6 mph 2.3 mph 62 % 0.00 in 0.0 W/m2 CLR
23:25 57.5 °F 44.6 °F 29.98 in Calm   3.5 mph 62 % 0.00 in 0.0 W/m2 CLR
23:30 57.5 °F 44.6 °F 29.99 in Calm   3.5 mph 62 % 0.00 in 0.0 W/m2 CLR
23:35 57.5 °F 44.6 °F 29.98 in Calm   2.3 mph 62 % 0.00 in 0.0 W/m2 CLR
23:36 57.5 °F 44.6 °F 29.99 in Calm   2.3 mph 62 % 0.00 in 0.0 W/m2 CLR
23:41 57.4 °F 44.5 °F 29.99 in Calm   1.2 mph 62 % 0.00 in 0.0 W/m2 CLR
23:46 57.3 °F 44.4 °F 29.99 in Calm   1.2 mph 62 % 0.00 in 0.0 W/m2 CLR
23:51 57.1 °F 44.2 °F 29.99 in Calm   1.2 mph 62 % 0.00 in 0.0 W/m2 CLR
23:56 57.1 °F 44.2 °F 29.99 in Calm     62 % 0.00 in 0.0 W/m2 CLR
Air Products Campus Weather
Compliments of Weather Underground - 3.5 mb